createdAt,value
2018-01-07T00:00:47.342Z,90.4
2018-01-07T00:01:52.524Z,90.4
2018-01-07T00:02:55.701Z,90.4
2018-01-07T00:03:59.735Z,90.5
2018-01-07T00:05:03.018Z,90.5
2018-01-07T00:06:06.560Z,90.5
2018-01-07T00:07:09.987Z,90.5
2018-01-07T00:08:13.425Z,90.5
2018-01-07T00:09:17.915Z,90.5
2018-01-07T00:10:57.078Z,90.6
2018-01-07T00:12:00.473Z,90.6
2018-01-07T00:13:03.863Z,90.6
2018-01-07T00:14:07.266Z,90.5
2018-01-07T00:15:11.343Z,90.4
2018-01-07T00:16:16.319Z,90.4
2018-01-07T00:17:19.466Z,90.5
2018-01-07T00:18:23.929Z,90.5
2018-01-07T00:19:28.008Z,90.4
2018-01-07T00:20:32.004Z,90.4
2018-01-07T00:21:41.943Z,90.5
2018-01-07T00:22:45.424Z,90.5
2018-01-07T00:23:48.587Z,90.6
2018-01-07T00:24:52.154Z,90.6
2018-01-07T00:25:58.200Z,90.6
2018-01-07T00:27:03.924Z,90.7
2018-01-07T00:28:09.408Z,90.8
2018-01-07T00:29:17.007Z,90.6
2018-01-07T00:30:21.370Z,90.7
2018-01-07T00:31:25.944Z,90.8
2018-01-07T00:32:37.262Z,90.8
2018-01-07T00:33:40.992Z,90.7
2018-01-07T00:34:45.768Z,90.7
2018-01-07T00:35:51.341Z,90.7
2018-01-07T00:36:56.974Z,90.6
2018-01-07T00:38:01.139Z,90.6
2018-01-07T00:39:05.262Z,90.8
2018-01-07T00:40:09.851Z,90.8
2018-01-07T00:41:14.479Z,90.9
2018-01-07T00:42:21.040Z,91
2018-01-07T00:43:27.886Z,91
2018-01-07T00:44:32.168Z,90.9
2018-01-07T00:45:38.329Z,90.9
2018-01-07T00:46:43.069Z,90.8
2018-01-07T00:47:48.778Z,90.7
2018-01-07T00:48:52.046Z,90.9
2018-01-07T00:49:56.841Z,91
2018-01-07T00:51:02.244Z,91
2018-01-07T00:52:05.583Z,91.1
2018-01-07T00:53:11.667Z,90.9
2018-01-07T00:54:23.359Z,91
2018-01-07T00:55:28.681Z,91
2018-01-07T00:56:32.525Z,91
2018-01-07T00:57:36.899Z,90.9
2018-01-07T00:58:42.430Z,90.9
2018-01-07T00:59:46.935Z,90.9
2018-01-07T01:00:50.417Z,91
2018-01-07T01:01:53.736Z,90.9
2018-01-07T01:03:01.359Z,91
2018-01-07T01:04:06.069Z,91.1
2018-01-07T01:05:16.525Z,91.1
2018-01-07T01:06:23.267Z,91.1
2018-01-07T01:07:28.958Z,91.2
2018-01-07T01:08:34.475Z,91.1
2018-01-07T01:09:37.761Z,91.1
2018-01-07T01:10:44.165Z,91
2018-01-07T01:11:51.983Z,91
2018-01-07T01:12:57.526Z,91
2018-01-07T01:14:03.294Z,90.8
2018-01-07T01:15:09.509Z,90.8
2018-01-07T01:16:20.436Z,90.8
2018-01-07T01:17:28.347Z,90.9
2018-01-07T01:18:32.434Z,91
2018-01-07T01:19:41.206Z,91.1
2018-01-07T01:20:46.462Z,91.1
2018-01-07T01:21:50.975Z,91.1
2018-01-07T01:22:57.038Z,91
2018-01-07T01:24:02.545Z,91.2
2018-01-07T01:25:10.215Z,91
2018-01-07T01:26:15.654Z,91
2018-01-07T01:27:26.612Z,90.9
2018-01-07T01:28:30.905Z,90.8
2018-01-07T01:29:35.914Z,90.8
2018-01-07T01:30:43.240Z,90.9
2018-01-07T01:31:47.284Z,90.9
2018-01-07T01:32:51.414Z,90.9
2018-01-07T01:33:56.041Z,90.8
2018-01-07T01:35:01.060Z,90.8
2018-01-07T01:36:05.648Z,90.8
2018-01-07T01:37:09.759Z,90.9
2018-01-07T01:38:18.200Z,90.9
2018-01-07T01:39:24.696Z,90.9
2018-01-07T01:40:30.641Z,91
2018-01-07T01:41:35.728Z,91.1
2018-01-07T01:42:41.314Z,91.2
2018-01-07T01:43:46.825Z,91.1
2018-01-07T01:44:53.849Z,91.1
2018-01-07T01:45:57.873Z,91.1
2018-01-07T01:47:01.449Z,91
2018-01-07T01:48:05.481Z,91
2018-01-07T01:49:16.583Z,91.1
2018-01-07T01:50:19.855Z,91.2
2018-01-07T01:51:27.501Z,91.2
2018-01-07T01:52:33.094Z,91.1
2018-01-07T01:53:36.436Z,91.1
2018-01-07T01:54:42.641Z,91.1
2018-01-07T01:55:45.994Z,91
2018-01-07T01:56:52.129Z,91.1
2018-01-07T01:57:55.493Z,91.1
2018-01-07T01:59:01.192Z,91
2018-01-07T02:00:12.837Z,90.9
2018-01-07T02:01:16.944Z,91
2018-01-07T02:02:23.827Z,91
2018-01-07T02:03:27.171Z,91.1
2018-01-07T02:04:33.866Z,91
2018-01-07T02:05:39.464Z,91
2018-01-07T02:06:43.794Z,91.2
2018-01-07T02:07:48.963Z,91.1
2018-01-07T02:08:54.533Z,91.1
2018-01-07T02:09:58.979Z,91.1
2018-01-07T02:11:09.321Z,91.1
2018-01-07T02:12:12.621Z,91
2018-01-07T02:13:16.107Z,91.1
2018-01-07T02:14:20.135Z,91.2
2018-01-07T02:15:23.508Z,91.1
2018-01-07T02:16:26.894Z,91
2018-01-07T02:17:34.351Z,91.1
2018-01-07T02:18:38.249Z,91
2018-01-07T02:19:42.142Z,90.9
2018-01-07T02:20:45.623Z,90.9
2018-01-07T02:21:53.343Z,91
2018-01-07T02:22:58.469Z,91.1
2018-01-07T02:24:04.978Z,91.1
2018-01-07T02:25:09.788Z,91
2018-01-07T02:26:16.760Z,91
2018-01-07T02:27:20.797Z,90.9
2018-01-07T02:28:24.814Z,90.9
2018-01-07T02:29:30.891Z,91
2018-01-07T02:30:36.450Z,91
2018-01-07T02:31:41.684Z,91.1
2018-01-07T02:32:50.961Z,91.1
2018-01-07T02:33:54.220Z,91.3
2018-01-07T02:34:59.527Z,91.1
2018-01-07T02:36:06.508Z,91.2
2018-01-07T02:37:09.918Z,91.3
2018-01-07T02:38:16.461Z,91.2
2018-01-07T02:39:22.796Z,91.2
2018-01-07T02:40:28.375Z,91.3
2018-01-07T02:41:31.510Z,91.4
2018-01-07T02:42:35.627Z,91.5
2018-01-07T02:47:15.865Z,91.4
2018-01-07T02:48:19.272Z,91.2
2018-01-07T02:49:23.408Z,91.2
2018-01-07T02:50:27.365Z,91.3
2018-01-07T02:51:30.622Z,91.2
2018-01-07T02:52:35.137Z,91
2018-01-07T02:53:39.145Z,91
2018-01-07T02:54:43.021Z,91.1
2018-01-07T02:55:47.176Z,91
2018-01-07T02:56:52.733Z,91
2018-01-07T02:58:01.263Z,91
2018-01-07T02:59:06.896Z,91.2
2018-01-07T03:00:12.122Z,91.3
2018-01-07T03:01:19.875Z,91.3
2018-01-07T03:02:23.400Z,91.3
2018-01-07T03:03:31.552Z,91.3
2018-01-07T03:04:36.705Z,91.3
2018-01-07T03:05:42.637Z,91.2
2018-01-07T03:06:46.666Z,91.2
2018-01-07T03:07:50.157Z,91.3
2018-01-07T03:08:59.444Z,91.2
2018-01-07T03:10:03.192Z,91.3
2018-01-07T03:11:08.612Z,91.4
2018-01-07T03:12:11.942Z,91.4
2018-01-07T03:13:16.314Z,91.4
2018-01-07T03:14:22.484Z,91.6
2018-01-07T03:15:27.957Z,91.6
2018-01-07T03:16:33.356Z,91.6
2018-01-07T03:17:37.009Z,91.9
2018-01-07T03:18:43.482Z,91.9
2018-01-07T03:20:25.885Z,91.9
2018-01-07T03:21:31.903Z,91.6
2018-01-07T03:22:37.061Z,91.5
2018-01-07T03:23:41.448Z,91.7
2018-01-07T03:24:46.962Z,91.7
2018-01-07T03:25:53.456Z,91.8
2018-01-07T03:27:00.199Z,91.9
2018-01-07T03:28:08.531Z,91.9
2018-01-07T03:29:14.249Z,91.9
2018-01-07T03:30:18.129Z,91.9
2018-01-07T03:31:59.781Z,92.1
2018-01-07T03:33:04.107Z,92
2018-01-07T03:34:07.416Z,92.1
2018-01-07T03:35:13.119Z,92.1
2018-01-07T03:36:21.726Z,92.1
2018-01-07T03:37:25.644Z,92
2018-01-07T03:38:29.011Z,92
2018-01-07T03:39:33.179Z,91.9
2018-01-07T03:40:39.605Z,91.7
2018-01-07T03:41:42.921Z,91.8
2018-01-07T03:42:52.729Z,91.9
2018-01-07T03:43:58.331Z,91.9
2018-01-07T03:45:03.934Z,91.9
2018-01-07T03:46:11.766Z,91.9
2018-01-07T03:47:15.158Z,91.8
2018-01-07T03:48:18.554Z,91.7
2018-01-07T03:49:27.010Z,91.7
2018-01-07T03:50:40.386Z,91.5
2018-01-07T03:51:44.333Z,91.5
2018-01-07T03:52:48.671Z,91.7
2018-01-07T03:53:59.788Z,91.9
2018-01-07T03:55:05.927Z,91.9
2018-01-07T03:56:12.616Z,91.8
2018-01-07T03:57:16.006Z,91.6
2018-01-07T03:58:21.539Z,91.6
2018-01-07T03:59:29.252Z,91.5
2018-01-07T04:00:34.749Z,91.6
2018-01-07T04:01:41.009Z,91.5
2018-01-07T04:02:47.390Z,91.5
2018-01-07T04:03:54.346Z,91.7
2018-01-07T04:05:01.929Z,91.8
2018-01-07T04:06:07.454Z,91.8
2018-01-07T04:07:13.783Z,91.8
2018-01-07T04:08:19.173Z,91.8
2018-01-07T04:09:24.673Z,91.8
2018-01-07T04:10:31.528Z,91.7
2018-01-07T04:11:37.010Z,91.7
2018-01-07T04:12:42.588Z,91.5
2018-01-07T04:13:50.399Z,91.5
2018-01-07T04:14:54.234Z,91.5
2018-01-07T04:16:03.176Z,91.6
2018-01-07T04:17:07.111Z,91.7
2018-01-07T04:18:10.269Z,91.7
2018-01-07T04:19:14.237Z,91.6
2018-01-07T04:20:18.363Z,91.6
2018-01-07T04:21:21.420Z,91.7
2018-01-07T04:22:25.383Z,91.9
2018-01-07T04:23:29.269Z,91.6
2018-01-07T04:24:32.331Z,91.5
2018-01-07T04:25:38.594Z,91.5
2018-01-07T04:26:50.094Z,91.6
2018-01-07T04:27:54.133Z,91.6
2018-01-07T04:28:58.264Z,91.6
2018-01-07T04:30:01.740Z,91.7
2018-01-07T04:31:07.920Z,91.6
2018-01-07T04:32:11.490Z,91.5
2018-01-07T04:33:14.896Z,91.5
2018-01-07T04:34:21.098Z,91.6
2018-01-07T04:35:26.507Z,91.7
2018-01-07T04:36:32.275Z,91.5
2018-01-07T04:37:42.783Z,91.6
2018-01-07T04:38:51.093Z,91.7
2018-01-07T04:39:56.593Z,91.7
2018-01-07T04:41:03.049Z,91.6
2018-01-07T04:42:07.771Z,91.6
2018-01-07T04:43:13.332Z,91.7
2018-01-07T04:44:20.177Z,91.8
2018-01-07T04:45:25.662Z,91.9
2018-01-07T04:46:31.497Z,91.8
2018-01-07T04:47:37.422Z,91.8
2018-01-07T04:48:44.337Z,91.7
2018-01-07T04:49:49.862Z,91.7
2018-01-07T04:50:53.244Z,91.8
2018-01-07T04:51:57.803Z,91.7
2018-01-07T04:53:01.246Z,91.7
2018-01-07T04:54:07.519Z,91.7
2018-01-07T04:55:13.161Z,91.7
2018-01-07T04:56:20.869Z,91.8
2018-01-07T04:57:25.236Z,91.8
2018-01-07T04:58:31.356Z,91.8
2018-01-07T04:59:40.378Z,91.9
2018-01-07T05:00:45.905Z,91.9
2018-01-07T05:01:51.616Z,91.8
2018-01-07T05:02:56.597Z,91.9
2018-01-07T05:04:00.040Z,91.9
2018-01-07T05:05:03.854Z,91.9
2018-01-07T05:06:11.312Z,91.9
2018-01-07T05:07:14.487Z,91.8
2018-01-07T05:08:22.330Z,91.8
2018-01-07T05:09:27.221Z,91.7
2018-01-07T05:10:37.628Z,91.7
2018-01-07T05:11:44.233Z,92
2018-01-07T05:12:47.655Z,92.1
2018-01-07T05:13:52.926Z,92.2
2018-01-07T05:14:57.379Z,92.2
2018-01-07T05:16:00.697Z,92.3
2018-01-07T05:17:05.314Z,92.2
2018-01-07T05:18:10.933Z,92.1
2018-01-07T05:19:15.556Z,92.1
2018-01-07T05:20:21.760Z,91.9
2018-01-07T05:21:28.790Z,91.9
2018-01-07T05:22:37.250Z,92
2018-01-07T05:23:41.224Z,92
2018-01-07T05:24:45.502Z,91.9
2018-01-07T05:25:51.789Z,91.9
2018-01-07T05:26:57.393Z,91.9
2018-01-07T05:28:00.796Z,92
2018-01-07T05:29:06.262Z,92
2018-01-07T05:30:09.544Z,92.2
2018-01-07T05:31:15.704Z,92.1
2018-01-07T05:32:26.749Z,92
2018-01-07T05:33:30.857Z,92
2018-01-07T05:34:34.763Z,91.9
2018-01-07T05:35:38.149Z,92
2018-01-07T05:36:42.784Z,91.9
2018-01-07T05:37:48.371Z,92
2018-01-07T05:38:51.794Z,92
2018-01-07T05:39:57.357Z,92.1
2018-01-07T05:41:02.872Z,92.1
2018-01-07T05:42:06.491Z,92
2018-01-07T05:43:13.742Z,92.1
2018-01-07T05:44:19.458Z,92.1
2018-01-07T05:45:25.338Z,92.1
2018-01-07T05:46:31.024Z,92.1
2018-01-07T05:47:39.552Z,92
2018-01-07T05:48:43.392Z,92
2018-01-07T05:49:46.908Z,91.9
2018-01-07T05:50:50.240Z,91.9
2018-01-07T05:51:54.200Z,92
2018-01-07T05:53:00.487Z,92
2018-01-07T05:54:42.494Z,91.9
2018-01-07T05:55:47.931Z,92
2018-01-07T05:56:53.534Z,91.9
2018-01-07T05:57:59.252Z,92
2018-01-07T05:59:03.975Z,91.9
2018-01-07T06:00:09.470Z,91.8
2018-01-07T06:01:16.196Z,91.7
2018-01-07T06:02:21.770Z,91.7
2018-01-07T06:03:25.405Z,91.7
2018-01-07T06:04:31.585Z,91.8
2018-01-07T06:05:40.637Z,91.8
2018-01-07T06:06:48.016Z,91.9
2018-01-07T06:07:51.356Z,91.9
2018-01-07T06:08:55.362Z,91.9
2018-01-07T06:10:00.861Z,91.9
2018-01-07T06:11:05.802Z,92
2018-01-07T06:12:13.359Z,91.9
2018-01-07T06:13:17.275Z,91.9
2018-01-07T06:14:21.209Z,91.9
2018-01-07T06:15:24.498Z,91.8
2018-01-07T06:16:37.001Z,92.2
2018-01-07T06:17:41.500Z,92
2018-01-07T06:18:47.057Z,91.9
2018-01-07T06:19:52.224Z,91.9
2018-01-07T06:20:58.277Z,91.9
2018-01-07T06:22:03.860Z,91.9
2018-01-07T06:23:10.065Z,92
2018-01-07T06:24:15.572Z,92
2018-01-07T06:25:22.949Z,92
2018-01-07T06:26:28.428Z,92
2018-01-07T06:27:38.684Z,92.1
2018-01-07T06:28:42.522Z,92
2018-01-07T06:29:49.916Z,92
2018-01-07T06:30:53.946Z,92.2
2018-01-07T06:31:59.495Z,92.4
2018-01-07T06:33:03.514Z,92.4
2018-01-07T06:34:08.962Z,92.5
2018-01-07T06:35:12.974Z,92.5
2018-01-07T06:36:20.541Z,92.5
2018-01-07T06:37:24.761Z,92.5
2018-01-07T06:38:38.119Z,92.4
2018-01-07T06:39:41.714Z,92.3
2018-01-07T06:40:44.921Z,92.3
2018-01-07T06:41:52.705Z,92.3
2018-01-07T06:42:58.120Z,92.3
2018-01-07T06:44:04.491Z,92.3
2018-01-07T06:45:10.002Z,92.3
2018-01-07T06:46:16.764Z,92.3
2018-01-07T06:47:23.233Z,92.4
2018-01-07T06:48:26.870Z,92.4
2018-01-07T06:49:34.547Z,92.4
2018-01-07T06:50:39.737Z,92.4
2018-01-07T06:51:44.873Z,92.3
2018-01-07T06:52:48.826Z,92.3
2018-01-07T06:53:53.056Z,92.3
2018-01-07T06:54:59.503Z,92.4
2018-01-07T06:56:04.157Z,92.3
2018-01-07T06:57:09.767Z,92.2
2018-01-07T06:58:14.107Z,92.2
2018-01-07T06:59:20.490Z,92.2
2018-01-07T07:00:59.963Z,92.2
2018-01-07T07:02:03.696Z,92.1
2018-01-07T07:03:08.068Z,92.1
2018-01-07T07:04:12.855Z,92.1
2018-01-07T07:05:16.224Z,92.1
2018-01-07T07:06:19.594Z,92.1
2018-01-07T07:07:23.690Z,92.1
2018-01-07T07:08:29.062Z,92.1
2018-01-07T07:09:35.192Z,92.2
2018-01-07T07:10:38.513Z,92.1
2018-01-07T07:11:47.472Z,92
2018-01-07T07:12:52.770Z,92.1
2018-01-07T07:13:56.195Z,92.1
2018-01-07T07:15:01.002Z,92.2
2018-01-07T07:16:04.355Z,92.2
2018-01-07T07:17:09.187Z,92.3
2018-01-07T07:18:15.547Z,92.5
2018-01-07T07:19:21.246Z,92.4
2018-01-07T07:20:25.040Z,92.5
2018-01-07T07:21:28.628Z,92.4
2018-01-07T07:22:42.551Z,92.4
2018-01-07T07:23:46.054Z,92.4
2018-01-07T07:24:49.924Z,92.3
2018-01-07T07:25:56.912Z,92.5
2018-01-07T07:27:03.814Z,92.4
2018-01-07T07:28:08.058Z,92.5
2018-01-07T07:29:15.292Z,92.5
2018-01-07T07:30:19.188Z,92.5
2018-01-07T07:31:22.572Z,92.4
2018-01-07T07:32:25.950Z,92.4
2018-01-07T07:33:36.472Z,92.4
2018-01-07T07:34:45.871Z,92.4
2018-01-07T07:35:49.323Z,92.3
2018-01-07T07:36:53.850Z,92.3
2018-01-07T07:38:00.240Z,92.2
2018-01-07T07:39:07.298Z,92.2
2018-01-07T07:40:11.393Z,92.2
2018-01-07T07:41:25.537Z,92.1
2018-01-07T07:42:31.900Z,92
2018-01-07T07:43:35.802Z,92.1
2018-01-07T07:44:46.692Z,92.2
2018-01-07T07:45:53.015Z,92.2
2018-01-07T07:46:57.249Z,92.3
2018-01-07T07:48:01.651Z,92.4
2018-01-07T07:49:05.503Z,92.4
2018-01-07T07:50:09.779Z,92.4
2018-01-07T07:51:13.490Z,92.4
2018-01-07T07:52:17.075Z,92.5
2018-01-07T07:53:21.168Z,92.6
2018-01-07T07:54:25.811Z,92.7
2018-01-07T07:55:39.385Z,92.7
2018-01-07T07:56:42.845Z,92.7
2018-01-07T07:57:46.131Z,92.6
2018-01-07T07:58:50.108Z,92.5
2018-01-07T07:59:55.104Z,92.5
2018-01-07T08:00:58.529Z,92.5
2018-01-07T08:02:05.645Z,92.4
2018-01-07T08:03:08.912Z,92.4
2018-01-07T08:04:12.129Z,92.4
2018-01-07T08:05:16.320Z,92.2
2018-01-07T08:06:56.712Z,92.3
2018-01-07T08:08:02.767Z,92.2
2018-01-07T08:09:07.591Z,92.2
2018-01-07T08:11:46.676Z,92.2
2018-01-07T08:12:51.821Z,92.1
2018-01-07T08:13:55.226Z,92
2018-01-07T08:15:02.173Z,92
2018-01-07T08:16:06.603Z,92
2018-01-07T08:17:12.126Z,92.1
2018-01-07T08:18:18.782Z,92.2
2018-01-07T08:19:29.848Z,92.1
2018-01-07T08:20:33.062Z,92.1
2018-01-07T08:21:37.102Z,92.1
2018-01-07T08:22:40.718Z,91.9
2018-01-07T08:23:44.140Z,91.9
2018-01-07T08:24:49.809Z,92.1
2018-01-07T08:25:53.988Z,92.1
2018-01-07T08:26:57.399Z,92
2018-01-07T08:28:00.953Z,92
2018-01-07T08:29:05.113Z,92
2018-01-07T08:30:14.940Z,92.1
2018-01-07T08:31:18.905Z,92.1
2018-01-07T08:32:22.315Z,92.2
2018-01-07T08:33:26.212Z,92.2
2018-01-07T08:34:30.024Z,92.2
2018-01-07T08:35:36.426Z,92.3
2018-01-07T08:36:41.888Z,92.2
2018-01-07T08:37:47.484Z,92.1
2018-01-07T08:38:51.550Z,92.2
2018-01-07T08:39:54.947Z,92.2
2018-01-07T08:41:06.471Z,92.1
2018-01-07T08:42:12.096Z,92.2
2018-01-07T08:43:15.446Z,92.2
2018-01-07T08:44:19.411Z,92.3
2018-01-07T08:45:24.174Z,92.3
2018-01-07T08:46:29.750Z,92.3
2018-01-07T08:47:35.307Z,92.3
2018-01-07T08:48:41.848Z,92.3
2018-01-07T08:49:46.028Z,92.2
2018-01-07T08:50:50.439Z,92.2
2018-01-07T08:51:57.563Z,92.3
2018-01-07T08:53:00.905Z,92.3
2018-01-07T08:54:06.376Z,92.2
2018-01-07T08:55:13.085Z,92.2
2018-01-07T08:56:16.568Z,92.2
2018-01-07T08:57:21.343Z,92.1
2018-01-07T08:58:28.903Z,92.1
2018-01-07T08:59:34.730Z,92.2
2018-01-07T09:00:42.461Z,92.2
2018-01-07T09:01:48.949Z,92.1
2018-01-07T09:02:58.715Z,92.5
2018-01-07T09:04:02.600Z,92.2
2018-01-07T09:05:06.803Z,92.3
2018-01-07T09:06:12.423Z,92.2
2018-01-07T09:07:17.784Z,92.2
2018-01-07T09:08:22.315Z,92.2
2018-01-07T09:09:25.995Z,92.3
2018-01-07T09:10:30.294Z,92.3
2018-01-07T09:11:35.132Z,92.2
2018-01-07T09:12:39.634Z,92.2
2018-01-07T09:13:47.014Z,92.2
2018-01-07T09:14:50.615Z,92.1
2018-01-07T09:15:54.091Z,92.2
2018-01-07T09:16:57.545Z,92.2
2018-01-07T09:18:01.667Z,92.1
2018-01-07T09:19:07.143Z,92.2
2018-01-07T09:20:13.007Z,92
2018-01-07T09:21:16.472Z,92.1
2018-01-07T09:22:20.033Z,92.1
2018-01-07T09:23:27.780Z,92.1
2018-01-07T09:24:35.999Z,92.1
2018-01-07T09:25:41.635Z,92.2
2018-01-07T09:26:49.216Z,92.2
2018-01-07T09:27:54.991Z,92.1
2018-01-07T09:29:00.631Z,92.1
2018-01-07T09:30:04.726Z,92.1
2018-01-07T09:31:08.455Z,92.1
2018-01-07T09:32:14.010Z,92.1
2018-01-07T09:33:18.036Z,92
2018-01-07T09:34:23.024Z,92
2018-01-07T09:35:30.766Z,92
2018-01-07T09:36:34.737Z,92
2018-01-07T09:37:38.171Z,92
2018-01-07T09:38:42.996Z,92.4
2018-01-07T09:39:46.436Z,92
2018-01-07T09:40:49.883Z,92
2018-01-07T09:41:54.056Z,91.9
2018-01-07T09:42:57.832Z,91.9
2018-01-07T09:44:01.894Z,91.9
2018-01-07T09:45:05.371Z,92
2018-01-07T09:46:12.369Z,92
2018-01-07T09:47:16.805Z,92
2018-01-07T09:48:22.860Z,92
2018-01-07T09:49:28.400Z,92
2018-01-07T09:51:37.866Z,92.1
2018-01-07T09:53:58.241Z,92.1
2018-01-07T10:00:29.304Z,92.2
2018-01-07T10:01:33.074Z,92.1
2018-01-07T10:02:36.436Z,92.1
2018-01-07T10:03:40.371Z,92.1
2018-01-07T10:04:43.537Z,92.1
2018-01-07T10:05:46.857Z,92.1
2018-01-07T10:06:50.612Z,92
2018-01-07T10:07:54.026Z,92.1
2018-01-07T10:09:00.881Z,92.1
2018-01-07T10:10:11.255Z,92.4
2018-01-07T10:11:15.377Z,92
2018-01-07T10:12:18.789Z,92
2018-01-07T10:13:22.200Z,92.1
2018-01-07T10:14:26.600Z,91.9
2018-01-07T10:15:30.154Z,91.9
2018-01-07T10:16:33.649Z,91.9
2018-01-07T10:17:37.140Z,92
2018-01-07T10:18:40.475Z,91.9
2018-01-07T10:19:43.786Z,92
2018-01-07T10:20:50.876Z,92
2018-01-07T10:21:54.328Z,91.9
2018-01-07T10:22:58.775Z,91.8
2018-01-07T10:24:02.344Z,91.9
2018-01-07T10:25:05.698Z,91.9
2018-01-07T10:26:09.259Z,91.9
2018-01-07T10:27:14.040Z,91.8
2018-01-07T10:28:17.361Z,91.9
2018-01-07T10:29:20.775Z,92
2018-01-07T10:30:24.179Z,92.1
2018-01-07T10:31:31.311Z,92.1
2018-01-07T10:32:34.932Z,92
2018-01-07T10:33:38.766Z,92
2018-01-07T10:34:44.176Z,92
2018-01-07T10:35:51.992Z,92
2018-01-07T10:36:55.300Z,92
2018-01-07T10:37:59.493Z,92
2018-01-07T10:39:03.638Z,92.1
2018-01-07T10:40:07.575Z,92
2018-01-07T10:41:12.854Z,91.9
2018-01-07T10:42:20.416Z,92
2018-01-07T10:43:30.043Z,92
2018-01-07T10:44:36.234Z,92.1
2018-01-07T10:45:42.437Z,92.2
2018-01-07T10:46:48.839Z,92.1
2018-01-07T10:48:07.961Z,92.1
2018-01-07T10:49:11.535Z,92
2018-01-07T10:50:15.102Z,92.1
2018-01-07T10:51:18.565Z,92.1
2018-01-07T10:52:22.090Z,91.9
2018-01-07T10:53:52.306Z,91.9
2018-01-07T10:54:56.327Z,92
2018-01-07T10:55:59.949Z,91.8
2018-01-07T10:57:04.496Z,91.9
2018-01-07T10:58:08.366Z,91.9
2018-01-07T10:59:13.212Z,92
2018-01-07T11:00:18.486Z,92
2018-01-07T11:01:22.177Z,91.8
2018-01-07T11:02:25.653Z,92
2018-01-07T11:03:29.115Z,91.9
2018-01-07T11:04:36.149Z,91.9
2018-01-07T11:05:39.757Z,91.9
2018-01-07T11:06:43.100Z,92
2018-01-07T11:07:46.594Z,92
2018-01-07T11:08:50.005Z,92
2018-01-07T11:09:54.080Z,91.9
2018-01-07T11:10:57.712Z,91.8
2018-01-07T11:12:01.397Z,91.9
2018-01-07T11:13:04.784Z,91.9
2018-01-07T11:14:09.570Z,91.9
2018-01-07T11:15:16.561Z,91.9
2018-01-07T11:16:20.693Z,91.8
2018-01-07T11:17:25.103Z,91.8
2018-01-07T11:18:29.757Z,91.9
2018-01-07T11:19:36.755Z,91.9
2018-01-07T11:20:41.491Z,92
2018-01-07T11:21:49.003Z,91.9
2018-01-07T11:22:52.419Z,92
2018-01-07T11:23:57.837Z,91.8
2018-01-07T11:25:02.167Z,92
2018-01-07T11:26:44.661Z,92
2018-01-07T11:27:48.419Z,92
2018-01-07T11:28:51.888Z,92
2018-01-07T11:29:57.109Z,92
2018-01-07T11:31:02.188Z,91.9
2018-01-07T11:32:09.514Z,91.9
2018-01-07T11:33:12.744Z,92.1
2018-01-07T11:34:17.851Z,92.1
2018-01-07T11:35:21.291Z,92
2018-01-07T11:36:25.922Z,92
2018-01-07T11:37:34.614Z,92.1
2018-01-07T11:38:39.569Z,92.1
2018-01-07T11:39:44.371Z,92.1
2018-01-07T11:40:47.896Z,92
2018-01-07T11:41:52.424Z,92.1
2018-01-07T11:42:56.776Z,92.1
2018-01-07T11:44:02.419Z,92
2018-01-07T11:45:05.977Z,92
2018-01-07T11:46:09.445Z,92
2018-01-07T11:47:13.064Z,92.1
2018-01-07T11:48:21.974Z,92.2
2018-01-07T11:49:25.609Z,92.2
2018-01-07T11:50:33.187Z,92.1
2018-01-07T11:51:41.194Z,92
2018-01-07T11:52:52.621Z,91.9
2018-01-07T11:53:58.432Z,92
2018-01-07T11:55:03.099Z,92.1
2018-01-07T11:56:07.386Z,92.1
2018-01-07T11:57:14.402Z,92.1
2018-01-07T11:58:18.921Z,92
2018-01-07T11:59:31.025Z,92
2018-01-07T12:00:38.636Z,92.1
2018-01-07T12:01:43.094Z,92.3
2018-01-07T12:02:48.449Z,92.5
2018-01-07T12:03:53.277Z,92.6
2018-01-07T12:04:56.797Z,92.7
2018-01-07T12:06:00.378Z,92.4
2018-01-07T12:07:04.331Z,92.3
2018-01-07T12:08:15.150Z,92.4
2018-01-07T12:09:19.931Z,92.4
2018-01-07T12:11:01.908Z,92.4
2018-01-07T12:12:05.490Z,92.4
2018-01-07T12:13:09.093Z,92.3
2018-01-07T12:14:13.269Z,92.4
2018-01-07T12:15:16.835Z,92.5
2018-01-07T12:16:20.826Z,92.4
2018-01-07T12:17:24.884Z,92.4
2018-01-07T12:18:29.148Z,92.5
2018-01-07T12:19:32.537Z,92.4
2018-01-07T12:20:36.917Z,92.3
2018-01-07T12:21:45.956Z,92.3
2018-01-07T12:22:49.423Z,92.4
2018-01-07T12:23:53.055Z,92.6
2018-01-07T12:24:56.497Z,92.6
2018-01-07T12:25:59.796Z,92.6
2018-01-07T12:27:03.396Z,92.6
2018-01-07T12:28:06.985Z,92.6
2018-01-07T12:29:10.423Z,92.6
2018-01-07T12:30:14.692Z,92.6
2018-01-07T12:31:18.661Z,92.7
2018-01-07T12:32:28.389Z,92.6
2018-01-07T12:33:31.886Z,92.5
2018-01-07T12:34:37.541Z,92.5
2018-01-07T12:35:41.762Z,92.5
2018-01-07T12:36:45.139Z,93
2018-01-07T12:37:48.629Z,92.8
2018-01-07T12:38:52.014Z,92.7
2018-01-07T12:39:56.449Z,92.7
2018-01-07T12:40:59.887Z,92.7
2018-01-07T12:42:04.703Z,92.7
2018-01-07T12:43:13.714Z,92.8
2018-01-07T12:44:17.980Z,92.8
2018-01-07T12:45:24.117Z,92.7
2018-01-07T12:46:29.576Z,92.8
2018-01-07T12:47:35.108Z,92.8
2018-01-07T12:48:41.004Z,92.7
2018-01-07T12:49:44.808Z,92.7
2018-01-07T12:50:51.171Z,92.8
2018-01-07T12:51:54.645Z,92.8
2018-01-07T12:52:58.111Z,92.8
2018-01-07T12:54:10.086Z,92.9
2018-01-07T12:55:17.950Z,92.9
2018-01-07T12:56:21.478Z,92.9
2018-01-07T12:57:27.480Z,92.9
2018-01-07T12:58:31.511Z,92.8
2018-01-07T12:59:36.176Z,92.9
2018-01-07T13:00:40.649Z,92.9
2018-01-07T13:01:46.402Z,92.8
2018-01-07T13:02:52.709Z,92.7
2018-01-07T13:04:00.378Z,92.7
2018-01-07T13:05:07.766Z,92.8
2018-01-07T13:06:11.232Z,92.9
2018-01-07T13:07:15.366Z,92.9
2018-01-07T13:08:18.852Z,92.9
2018-01-07T13:09:24.421Z,92.9
2018-01-07T13:10:29.956Z,92.8
2018-01-07T13:11:35.722Z,92.8
2018-01-07T13:12:41.371Z,92.8
2018-01-07T13:13:46.969Z,92.8
2018-01-07T13:14:52.561Z,92.8
2018-01-07T13:16:04.419Z,92.8
2018-01-07T13:17:09.736Z,92.7
2018-01-07T13:18:18.205Z,92.7
2018-01-07T13:19:23.676Z,92.6
2018-01-07T13:20:31.046Z,92.6
2018-01-07T13:21:34.422Z,92.6
2018-01-07T13:22:38.108Z,92.6
2018-01-07T13:23:44.630Z,92.6
2018-01-07T13:24:48.175Z,92.6
2018-01-07T13:25:53.630Z,92.7
2018-01-07T13:27:01.390Z,92.8
2018-01-07T13:28:06.279Z,92.8
2018-01-07T13:29:11.796Z,93
2018-01-07T13:30:15.335Z,93
2018-01-07T13:31:18.845Z,93
2018-01-07T13:32:22.407Z,93
2018-01-07T13:33:27.562Z,93
2018-01-07T13:34:32.004Z,93
2018-01-07T13:35:35.518Z,93
2018-01-07T13:36:39.175Z,92.9
2018-01-07T13:37:46.164Z,92.8
2018-01-07T13:38:50.110Z,92.8
2018-01-07T13:39:56.487Z,92.8
2018-01-07T13:41:00.045Z,92.7
2018-01-07T13:42:03.491Z,92.7
2018-01-07T13:43:07.079Z,92.7
2018-01-07T13:44:11.184Z,92.9
2018-01-07T13:45:14.420Z,93
2018-01-07T13:46:18.527Z,93.1
2018-01-07T13:47:21.983Z,93.1
2018-01-07T13:48:30.880Z,93.1
2018-01-07T13:50:03.598Z,93
2018-01-07T13:51:07.967Z,93
2018-01-07T13:52:12.069Z,93
2018-01-07T13:53:16.227Z,93
2018-01-07T13:54:20.249Z,93
2018-01-07T13:55:25.226Z,93
2018-01-07T13:56:29.389Z,93
2018-01-07T13:57:32.756Z,93
2018-01-07T13:58:37.256Z,93
2018-01-07T13:59:44.642Z,93
2018-01-07T14:00:48.451Z,93
2018-01-07T14:01:52.876Z,93
2018-01-07T14:02:56.385Z,93
2018-01-07T14:03:59.660Z,93
2018-01-07T14:05:03.181Z,93
2018-01-07T14:06:07.605Z,93.1
2018-01-07T14:07:11.733Z,93.1
2018-01-07T14:08:15.854Z,93.2
2018-01-07T14:09:21.261Z,93.2
2018-01-07T14:10:29.544Z,93.3
2018-01-07T14:11:34.528Z,93.1
2018-01-07T14:12:39.084Z,93.1
2018-01-07T14:13:42.652Z,93.2
2018-01-07T14:14:56.546Z,93.2
2018-01-07T14:16:34.449Z,93.6
2018-01-07T14:17:40.457Z,93.1
2018-01-07T14:19:09.346Z,93.2
2018-01-07T14:20:17.162Z,93.2
2018-01-07T14:21:23.473Z,93.2
2018-01-07T14:22:47.515Z,93.3
2018-01-07T14:24:01.019Z,93.1
2018-01-07T14:25:09.613Z,93.2
2018-01-07T14:26:36.914Z,93.3
2018-01-07T14:27:45.019Z,93.3
2018-01-07T14:29:09.979Z,93.3
2018-01-07T14:30:54.696Z,93.3
2018-01-07T14:32:22.238Z,93.4
2018-01-07T14:34:10.886Z,93.5
2018-01-07T14:35:17.869Z,93.6
2018-01-07T14:36:27.416Z,93.6
2018-01-07T14:37:32.175Z,93.6
2018-01-07T14:38:36.225Z,93.6
2018-01-07T14:39:40.587Z,93.7
2018-01-07T14:40:44.659Z,93.5
2018-01-07T14:41:50.713Z,93.5
2018-01-07T14:42:54.737Z,93.6
2018-01-07T14:43:58.754Z,93.6
2018-01-07T14:45:03.787Z,93.5
2018-01-07T14:46:08.664Z,93.5
2018-01-07T14:47:16.241Z,93.4
2018-01-07T14:48:21.265Z,93.5
2018-01-07T14:49:25.447Z,93.5
2018-01-07T14:50:29.761Z,93.5
2018-01-07T14:51:33.300Z,93.5
2018-01-07T14:52:36.950Z,93.6
2018-01-07T14:54:03.212Z,93.5
2018-01-07T14:55:12.085Z,93.4
2018-01-07T14:56:16.438Z,93.5
2018-01-07T14:57:20.957Z,93.5
2018-01-07T14:58:30.915Z,93.6
2018-01-07T14:59:35.401Z,93.5
2018-01-07T15:00:40.106Z,93.5
2018-01-07T15:01:44.242Z,93.6
2018-01-07T15:02:47.732Z,93.6